Terminal Aerodrome Forecast
Issued by NWS

Home | Current Version | Previous Version | Text Only | Print | Product List | Glossary On
Versions: 1 2 3 4 5 6 7 8 9 10 11 12 13 14 15 16 17 18 19 20 21 22 23 24 25 26
000
FTUS42 KMFL 230545
TAFOPF
TAF
KOPF 230545Z 2306/2406 15010KT P6SM FEW020
     FM231400 15010KT P6SM VCSH SCT030 BKN060
     FM231800 16011G17KT P6SM VCSH BKN030 BKN060
     FM240000 16007KT P6SM FEW030 BKN050
     FM240300 17005KT P6SM BKN050 BKN100=

USA.gov is the U.S. government's official web portal to all federal, state and local government web resources and services.